createdAt,value
2023-05-20T00:00:53.683Z,50.78
2023-05-20T00:01:53.669Z,58.18
2023-05-20T00:02:53.773Z,47.19
2023-05-20T00:03:53.832Z,52.07
2023-05-20T00:04:53.999Z,47.95
2023-05-20T00:05:53.659Z,52.83
2023-05-20T00:06:53.749Z,62.77
2023-05-20T00:07:53.618Z,49.10
2023-05-20T00:08:53.632Z,52.03
2023-05-20T00:09:53.608Z,58.81
2023-05-20T00:10:53.607Z,56.90
2023-05-20T00:11:53.598Z,57.47
2023-05-20T00:12:53.603Z,59.50
2023-05-20T00:13:53.595Z,55.35
2023-05-20T00:14:54.621Z,53.91
2023-05-20T00:15:54.575Z,56.17
2023-05-20T00:16:53.975Z,55.99
2023-05-20T00:17:53.581Z,56.01
2023-05-20T00:18:53.574Z,52.11
2023-05-20T00:19:53.530Z,54.41
2023-05-20T00:22:42.924Z,51.85
2023-05-20T00:23:42.919Z,60.37
2023-05-20T00:24:42.897Z,52.48
2023-05-20T00:25:43.991Z,54.64
2023-05-20T00:26:43.988Z,56.33
2023-05-20T00:27:43.972Z,52.65
2023-05-20T00:28:43.980Z,56.06
2023-05-20T00:29:43.962Z,52.60
2023-05-20T00:30:43.941Z,57.26
2023-05-20T00:31:44.020Z,57.97
2023-05-20T00:32:43.989Z,53.90
2023-05-20T00:33:43.923Z,55.96
2023-05-20T00:34:43.908Z,56.49
2023-05-20T00:35:43.909Z,55.75
2023-05-20T00:36:43.895Z,60.18
2023-05-20T00:37:43.907Z,57.93
2023-05-20T00:38:43.916Z,53.81
2023-05-20T00:39:43.902Z,55.43
2023-05-20T00:40:43.881Z,55.81
2023-05-20T00:41:43.865Z,61.49
2023-05-20T00:42:43.897Z,50.92
2023-05-20T00:43:43.841Z,51.94
2023-05-20T00:44:43.911Z,51.14
2023-05-20T00:45:43.832Z,51.71
2023-05-20T00:46:43.826Z,51.39
2023-05-20T00:47:43.864Z,57.76
2023-05-20T00:48:43.821Z,57.91
2023-05-20T00:49:43.800Z,59.18
2023-05-20T00:50:43.779Z,55.17
2023-05-20T00:51:43.789Z,61.54
2023-05-20T00:52:43.796Z,52.46
2023-05-20T00:53:43.771Z,52.89
2023-05-20T00:54:43.755Z,58.97
2023-05-20T00:55:43.758Z,50.99
2023-05-20T00:56:43.741Z,48.28
2023-05-20T00:57:43.746Z,50.84
2023-05-20T00:58:43.791Z,57.69
2023-05-20T00:59:44.912Z,50.61
2023-05-20T01:00:44.739Z,62.19
2023-05-20T01:01:44.347Z,55.35
2023-05-20T01:02:43.784Z,58.00
2023-05-20T01:03:43.721Z,57.85
2023-05-20T01:04:43.693Z,56.15
2023-05-20T01:05:43.709Z,50.61
2023-05-20T01:06:43.676Z,60.43
2023-05-20T01:07:43.655Z,53.10
2023-05-20T01:08:44.456Z,50.21
2023-05-20T01:09:43.632Z,60.26
2023-05-20T01:10:43.620Z,61.14
2023-05-20T01:11:43.633Z,54.79
2023-05-20T01:12:43.613Z,55.21
2023-05-20T01:13:43.619Z,44.83
2023-05-20T01:14:43.599Z,44.36
2023-05-20T01:15:43.629Z,52.55
2023-05-20T01:16:43.577Z,52.30
2023-05-20T01:17:44.337Z,47.92
2023-05-20T01:18:43.642Z,53.86
2023-05-20T01:19:43.563Z,54.75
2023-05-20T01:20:43.577Z,61.73
2023-05-20T01:21:43.549Z,56.24
2023-05-20T01:22:43.554Z,59.50
2023-05-20T01:23:44.255Z,56.63
2023-05-20T01:24:43.512Z,52.53
2023-05-20T01:25:43.531Z,54.07
2023-05-20T01:26:43.509Z,50.71
2023-05-20T01:27:43.511Z,56.25
2023-05-20T01:28:43.482Z,55.03
2023-05-20T01:29:43.503Z,58.52
2023-05-20T01:30:44.553Z,53.86
2023-05-20T01:31:43.493Z,58.13
2023-05-20T01:32:43.498Z,53.24
2023-05-20T01:33:43.463Z,61.77
2023-05-20T01:34:43.457Z,61.80
2023-05-20T01:35:43.448Z,60.32
2023-05-20T01:36:43.445Z,57.51
2023-05-20T01:37:43.446Z,56.42
2023-05-20T01:38:43.417Z,53.85
2023-05-20T01:39:43.427Z,55.73
2023-05-20T01:40:43.418Z,55.79
2023-05-20T01:41:43.403Z,47.46
2023-05-20T01:42:43.393Z,56.69
2023-05-20T01:43:43.377Z,50.98
2023-05-20T01:44:43.372Z,52.21
2023-05-20T01:45:43.400Z,53.21
2023-05-20T01:46:43.457Z,52.21
2023-05-20T01:47:43.381Z,48.32
2023-05-20T01:48:43.345Z,49.69
2023-05-20T01:49:43.341Z,56.28
2023-05-20T01:50:43.334Z,56.44
2023-05-20T01:51:43.305Z,50.48
2023-05-20T01:52:43.309Z,51.69
2023-05-20T01:53:43.293Z,52.10
2023-05-20T01:54:43.293Z,55.66
2023-05-20T01:55:43.294Z,55.71
2023-05-20T01:56:43.293Z,52.38
2023-05-20T01:57:43.265Z,53.18
2023-05-20T01:58:43.258Z,50.03
2023-05-20T01:59:43.248Z,57.81
2023-05-20T02:00:43.887Z,57.98
2023-05-20T02:01:43.300Z,49.54
2023-05-20T02:02:43.400Z,55.45
2023-05-20T02:03:43.232Z,46.89
2023-05-20T02:04:43.199Z,55.29
2023-05-20T02:05:43.286Z,53.69
2023-05-20T02:06:43.184Z,54.79
2023-05-20T02:07:43.906Z,50.59
2023-05-20T02:08:43.301Z,47.70
2023-05-20T02:09:43.197Z,51.41
2023-05-20T02:10:43.167Z,48.98
2023-05-20T02:11:43.151Z,53.88
2023-05-20T02:12:43.185Z,56.54
2023-05-20T02:13:43.146Z,52.51
2023-05-20T02:14:43.116Z,44.64
2023-05-20T02:15:43.101Z,55.27
2023-05-20T02:16:43.157Z,60.87
2023-05-20T02:17:43.112Z,54.14
2023-05-20T02:18:43.438Z,52.17
2023-05-20T02:19:43.079Z,51.52
2023-05-20T02:20:43.073Z,52.49
2023-05-20T02:21:43.062Z,51.18
2023-05-20T02:22:43.079Z,60.08
2023-05-20T02:23:43.054Z,51.20
2023-05-20T02:24:43.082Z,56.15
2023-05-20T02:25:43.066Z,50.18
2023-05-20T02:26:43.034Z,47.06
2023-05-20T02:27:43.019Z,52.45
2023-05-20T02:28:43.026Z,51.81
2023-05-20T02:29:43.018Z,52.09
2023-05-20T02:30:43.007Z,46.89
2023-05-20T02:31:43.007Z,50.64
2023-05-20T02:32:42.987Z,50.75
2023-05-20T02:33:43.054Z,53.05
2023-05-20T02:34:43.858Z,46.16
2023-05-20T02:35:42.953Z,45.87
2023-05-20T02:36:42.957Z,54.97
2023-05-20T02:37:42.961Z,54.49
2023-05-20T02:38:42.958Z,49.59
2023-05-20T02:39:42.926Z,52.10
2023-05-20T02:40:42.936Z,53.74
2023-05-20T02:41:42.915Z,55.42
2023-05-20T02:42:42.904Z,57.77
2023-05-20T02:43:42.907Z,58.76
2023-05-20T02:44:43.835Z,57.45
2023-05-20T02:45:43.205Z,55.57
2023-05-20T02:46:42.875Z,55.67
2023-05-20T02:47:42.901Z,47.14
2023-05-20T02:48:42.867Z,46.62
2023-05-20T02:49:42.869Z,50.90
2023-05-20T02:50:42.902Z,55.20
2023-05-20T02:51:42.846Z,51.53
2023-05-20T02:52:42.920Z,60.37
2023-05-20T02:53:42.831Z,46.68
2023-05-20T02:54:42.838Z,53.30
2023-05-20T02:55:42.801Z,54.45
2023-05-20T02:56:42.902Z,48.51
2023-05-20T02:57:43.413Z,51.47
2023-05-20T02:58:42.794Z,54.97
2023-05-20T02:59:42.775Z,52.52
2023-05-20T03:00:42.745Z,50.36
2023-05-20T03:01:42.822Z,50.45
2023-05-20T03:02:42.783Z,54.57
2023-05-20T03:03:42.739Z,54.75
2023-05-20T03:04:42.859Z,63.11
2023-05-20T03:05:42.704Z,62.62
2023-05-20T03:06:44.338Z,53.02
2023-05-20T03:07:42.720Z,53.85
2023-05-20T03:08:42.760Z,52.73
2023-05-20T03:09:42.681Z,62.10
2023-05-20T03:10:42.675Z,57.73
2023-05-20T03:11:42.688Z,52.15
2023-05-20T03:12:42.687Z,58.18
2023-05-20T03:13:42.667Z,54.90
2023-05-20T03:14:42.691Z,61.74
2023-05-20T03:15:42.701Z,54.03
2023-05-20T03:16:42.646Z,56.96
2023-05-20T03:17:42.715Z,52.24
2023-05-20T03:18:42.619Z,54.63
2023-05-20T03:19:42.628Z,56.09
2023-05-20T03:20:42.627Z,52.47
2023-05-20T03:21:42.608Z,53.79
2023-05-20T03:22:42.592Z,62.25
2023-05-20T03:23:42.590Z,60.72
2023-05-20T03:24:44.435Z,58.37
2023-05-20T03:25:42.545Z,57.72
2023-05-20T03:26:42.557Z,56.01
2023-05-20T03:27:42.538Z,58.67
2023-05-20T03:28:42.541Z,58.84
2023-05-20T03:29:42.528Z,53.52
2023-05-20T03:30:42.528Z,59.69
2023-05-20T03:31:42.535Z,59.66
2023-05-20T03:32:42.617Z,56.06
2023-05-20T03:33:42.491Z,61.04
2023-05-20T03:34:42.930Z,56.40
2023-05-20T03:35:42.500Z,58.77
2023-05-20T03:36:42.468Z,57.24
2023-05-20T03:37:43.350Z,56.65
2023-05-20T03:38:42.448Z,56.32
2023-05-20T03:39:42.449Z,58.61
2023-05-20T03:40:42.453Z,60.03
2023-05-20T03:41:43.344Z,59.04
2023-05-20T03:42:42.427Z,60.32
2023-05-20T03:43:42.402Z,61.21
2023-05-20T03:44:42.454Z,57.64
2023-05-20T03:45:42.392Z,61.33
2023-05-20T03:46:42.401Z,61.20
2023-05-20T03:47:42.402Z,60.36
2023-05-20T03:48:42.385Z,59.11
2023-05-20T03:49:42.397Z,60.63
2023-05-20T03:50:42.345Z,55.24
2023-05-20T03:51:42.349Z,56.10
2023-05-20T03:52:42.343Z,56.18
2023-05-20T03:53:42.353Z,53.44
2023-05-20T03:54:42.345Z,58.35
2023-05-20T03:55:42.341Z,60.79
2023-05-20T03:56:42.311Z,62.25
2023-05-20T03:57:42.296Z,65.11
2023-05-20T03:58:42.327Z,62.47
2023-05-20T03:59:42.283Z,66.68
2023-05-20T04:00:42.280Z,61.47
2023-05-20T04:01:42.293Z,62.39
2023-05-20T04:02:42.344Z,55.32
2023-05-20T04:03:42.408Z,58.73
2023-05-20T04:04:42.236Z,62.26
2023-05-20T04:05:42.264Z,63.44
2023-05-20T04:06:42.244Z,62.53
2023-05-20T04:07:42.225Z,64.38
2023-05-20T04:08:42.225Z,62.54
2023-05-20T04:09:42.218Z,59.09
2023-05-20T04:10:42.195Z,58.88
2023-05-20T04:11:42.176Z,57.83
2023-05-20T04:12:42.843Z,63.57
2023-05-20T04:13:42.175Z,62.99
2023-05-20T04:14:42.232Z,56.50
2023-05-20T04:15:42.206Z,61.99
2023-05-20T04:16:42.167Z,62.29
2023-05-20T04:17:42.181Z,56.82
2023-05-20T04:18:42.168Z,60.60
2023-05-20T04:19:42.129Z,60.65
2023-05-20T04:20:42.138Z,57.78
2023-05-20T04:21:42.116Z,55.26
2023-05-20T04:22:42.125Z,58.25
2023-05-20T04:23:42.110Z,61.00
2023-05-20T04:24:42.092Z,57.20
2023-05-20T04:25:42.211Z,59.83
2023-05-20T04:26:42.066Z,59.30
2023-05-20T04:27:42.081Z,53.08
2023-05-20T04:28:42.144Z,62.09
2023-05-20T04:29:42.041Z,56.74
2023-05-20T04:30:42.036Z,53.12
2023-05-20T04:31:42.086Z,60.90
2023-05-20T04:32:42.055Z,59.23
2023-05-20T04:33:42.008Z,56.80
2023-05-20T04:34:42.022Z,59.65
2023-05-20T04:35:42.020Z,59.72
2023-05-20T04:36:41.982Z,61.50
2023-05-20T04:37:42.011Z,59.52
2023-05-20T04:38:41.974Z,57.08
2023-05-20T04:39:41.987Z,58.71
2023-05-20T04:40:41.956Z,57.16
2023-05-20T04:41:41.958Z,61.12
2023-05-20T04:42:41.934Z,54.84
2023-05-20T04:43:42.967Z,59.11
2023-05-20T04:44:42.536Z,51.73
2023-05-20T04:45:42.957Z,62.00
2023-05-20T04:46:41.932Z,58.06
2023-05-20T04:47:41.990Z,58.00
2023-05-20T04:48:41.927Z,64.29
2023-05-20T04:49:41.885Z,57.12
2023-05-20T04:50:41.900Z,56.34
2023-05-20T04:51:41.883Z,60.07
2023-05-20T04:52:41.928Z,60.40
2023-05-20T04:53:43.190Z,58.30
2023-05-20T04:54:41.833Z,53.44
2023-05-20T04:55:41.868Z,59.40
2023-05-20T04:56:41.828Z,55.62
2023-05-20T04:57:42.381Z,54.44
2023-05-20T04:58:41.828Z,56.18
2023-05-20T04:59:41.826Z,61.60
2023-05-20T05:00:41.804Z,54.80
2023-05-20T05:01:41.882Z,56.15
2023-05-20T05:02:42.449Z,61.84
2023-05-20T05:03:41.791Z,62.21
2023-05-20T05:04:41.815Z,61.49
2023-05-20T05:05:41.780Z,63.23
2023-05-20T05:08:48.728Z,61.93
2023-05-20T05:09:48.728Z,63.44
2023-05-20T05:10:48.723Z,63.54
2023-05-20T05:11:49.816Z,72.61
2023-05-20T05:12:49.811Z,60.92
2023-05-20T05:13:49.794Z,62.74
2023-05-20T05:14:49.796Z,62.74
2023-05-20T05:15:49.908Z,62.42
2023-05-20T05:16:50.610Z,67.52
2023-05-20T05:17:49.798Z,67.92
2023-05-20T05:18:49.785Z,68.07
2023-05-20T05:19:49.764Z,61.40
2023-05-20T05:20:51.613Z,62.17
2023-05-20T05:21:49.749Z,59.73
2023-05-20T05:22:49.748Z,62.76
2023-05-20T05:23:49.701Z,65.73
2023-05-20T05:24:49.708Z,62.28
2023-05-20T05:25:49.693Z,62.86
2023-05-20T05:26:49.685Z,62.79
2023-05-20T05:27:49.685Z,65.95
2023-05-20T05:28:49.683Z,62.14
2023-05-20T05:29:50.654Z,63.54
2023-05-20T05:30:49.655Z,62.86
2023-05-20T05:31:49.694Z,65.70
2023-05-20T05:32:49.767Z,62.02
2023-05-20T05:33:49.638Z,59.10
2023-05-20T05:34:49.645Z,60.20
2023-05-20T05:35:49.656Z,59.82
2023-05-20T05:36:49.718Z,63.34
2023-05-20T05:37:49.635Z,62.72
2023-05-20T05:38:49.586Z,62.08
2023-05-20T05:39:49.603Z,60.22
2023-05-20T05:40:49.581Z,62.98
2023-05-20T05:41:49.565Z,63.52
2023-05-20T05:42:49.559Z,57.57
2023-05-20T05:43:49.555Z,57.85
2023-05-20T05:44:49.565Z,58.00
2023-05-20T05:45:49.558Z,61.70
2023-05-20T05:46:49.560Z,64.37
2023-05-20T05:47:49.596Z,61.76
2023-05-20T05:48:49.507Z,58.96
2023-05-20T05:49:49.525Z,60.68
2023-05-20T05:50:49.494Z,61.14
2023-05-20T05:51:49.497Z,60.30
2023-05-20T05:52:49.471Z,64.08
2023-05-20T05:53:49.498Z,58.67
2023-05-20T05:54:49.450Z,63.59
2023-05-20T05:55:49.451Z,63.13
2023-05-20T05:56:49.472Z,60.49
2023-05-20T05:57:50.438Z,58.62
2023-05-20T05:58:49.460Z,61.61
2023-05-20T05:59:49.437Z,61.56
2023-05-20T06:00:49.437Z,64.41
2023-05-20T06:01:49.441Z,60.56
2023-05-20T06:02:49.671Z,60.80
2023-05-20T06:03:49.453Z,59.79
2023-05-20T06:04:49.388Z,59.35
2023-05-20T06:05:49.377Z,58.29
2023-05-20T06:06:49.373Z,58.25
2023-05-20T06:07:49.370Z,61.55
2023-05-20T06:08:49.348Z,61.46
2023-05-20T06:09:49.347Z,65.30
2023-05-20T06:10:49.346Z,63.10
2023-05-20T06:11:49.378Z,61.42
2023-05-20T06:12:49.326Z,62.69
2023-05-20T06:13:49.310Z,63.97
2023-05-20T06:14:49.289Z,61.84
2023-05-20T06:15:49.275Z,63.89
2023-05-20T06:16:49.338Z,60.85
2023-05-20T06:17:49.281Z,61.05
2023-05-20T06:18:49.325Z,61.17
2023-05-20T06:19:49.716Z,63.58
2023-05-20T06:20:49.246Z,64.12
2023-05-20T06:21:49.228Z,61.15
2023-05-20T06:22:49.230Z,61.23
2023-05-20T06:23:49.222Z,61.99
2023-05-20T06:24:49.228Z,62.51
2023-05-20T06:25:49.213Z,65.47
2023-05-20T06:26:49.178Z,64.10
2023-05-20T06:27:50.181Z,63.30
2023-05-20T06:28:49.199Z,64.24
2023-05-20T06:29:49.179Z,61.71
2023-05-20T06:30:49.234Z,67.12
2023-05-20T06:31:49.136Z,63.32
2023-05-20T06:32:49.217Z,63.18
2023-05-20T06:33:49.161Z,61.60
2023-05-20T06:34:49.207Z,65.87
2023-05-20T06:35:49.119Z,61.47
2023-05-20T06:36:49.197Z,62.91
2023-05-20T06:37:49.163Z,63.87
2023-05-20T06:38:49.112Z,60.76
2023-05-20T06:39:49.682Z,62.32
2023-05-20T06:40:49.068Z,63.60
2023-05-20T06:41:49.093Z,63.02
2023-05-20T06:42:49.622Z,65.36
2023-05-20T06:43:52.598Z,61.75
2023-05-20T06:44:49.074Z,63.57
2023-05-20T06:45:49.069Z,62.82
2023-05-20T06:46:51.668Z,62.96
2023-05-20T06:47:49.750Z,62.00
2023-05-20T06:48:49.020Z,62.13
2023-05-20T06:49:49.020Z,64.06
2023-05-20T06:50:48.997Z,66.34
2023-05-20T06:51:49.082Z,62.22
2023-05-20T06:52:48.991Z,65.85
2023-05-20T06:53:48.970Z,63.98
2023-05-20T06:54:49.635Z,65.65
2023-05-20T06:55:49.756Z,63.20
2023-05-20T06:56:48.943Z,63.77
2023-05-20T06:57:48.941Z,62.82
2023-05-20T06:58:48.929Z,64.26
2023-05-20T06:59:48.937Z,63.39
2023-05-20T07:00:48.913Z,65.99
2023-05-20T07:01:48.989Z,63.15
2023-05-20T07:02:48.935Z,64.94
2023-05-20T07:03:48.937Z,63.84
2023-05-20T07:04:48.878Z,63.86
2023-05-20T07:05:49.703Z,64.08
2023-05-20T07:06:48.863Z,65.03
2023-05-20T07:07:49.861Z,64.13
2023-05-20T07:08:51.647Z,61.34
2023-05-20T07:09:48.847Z,62.99
2023-05-20T07:10:48.837Z,66.74
2023-05-20T07:11:48.830Z,64.42
2023-05-20T07:12:48.825Z,65.07
2023-05-20T07:13:48.846Z,64.18
2023-05-20T07:14:50.758Z,61.88
2023-05-20T07:15:48.826Z,63.21
2023-05-20T07:16:48.821Z,62.89
2023-05-20T07:17:48.808Z,62.15
2023-05-20T07:18:48.789Z,64.48
2023-05-20T07:19:48.768Z,62.31
2023-05-20T07:20:48.751Z,65.47
2023-05-20T07:21:48.760Z,63.63
2023-05-20T07:22:48.765Z,63.12
2023-05-20T07:23:48.731Z,64.14
2023-05-20T07:24:48.725Z,63.76
2023-05-20T07:25:50.231Z,64.13
2023-05-20T07:26:48.715Z,66.27
2023-05-20T07:27:48.702Z,63.27
2023-05-20T07:28:48.724Z,62.77
2023-05-20T07:29:48.695Z,64.44
2023-05-20T07:30:48.669Z,64.67
2023-05-20T07:31:48.761Z,65.48
2023-05-20T07:32:48.680Z,64.16
2023-05-20T07:33:48.640Z,62.94
2023-05-20T07:34:49.221Z,63.44
2023-05-20T07:35:48.662Z,64.65
2023-05-20T07:36:48.636Z,63.65
2023-05-20T07:37:48.618Z,63.45
2023-05-20T07:38:57.055Z,63.15
2023-05-20T07:39:50.595Z,64.05
2023-05-20T07:40:48.582Z,63.25
2023-05-20T07:41:49.212Z,62.90
2023-05-20T07:42:48.599Z,64.41
2023-05-20T07:43:48.585Z,64.52
2023-05-20T07:44:48.581Z,62.08
2023-05-20T07:45:48.617Z,63.86
2023-05-20T07:46:48.549Z,65.65
2023-05-20T07:47:48.568Z,67.65
2023-05-20T07:48:48.549Z,64.25
2023-05-20T07:49:48.532Z,64.08
2023-05-20T07:50:48.509Z,63.57
2023-05-20T07:51:48.496Z,63.51
2023-05-20T07:53:50.505Z,64.94
2023-05-20T07:54:48.483Z,64.90
2023-05-20T07:55:48.484Z,64.15
2023-05-20T07:56:48.456Z,64.09
2023-05-20T07:57:48.437Z,64.13
2023-05-20T07:58:48.468Z,66.49
2023-05-20T07:59:48.449Z,61.77
2023-05-20T08:00:48.424Z,65.46
2023-05-20T08:01:48.507Z,66.09
2023-05-20T08:02:48.545Z,66.12
2023-05-20T08:03:48.481Z,64.24
2023-05-20T08:04:48.402Z,65.93
2023-05-20T08:05:48.378Z,62.88
2023-05-20T08:06:48.399Z,63.39
2023-05-20T08:07:48.370Z,64.19
2023-05-20T08:08:48.434Z,64.39
2023-05-20T08:09:48.353Z,64.83
2023-05-20T08:10:48.349Z,66.66
2023-05-20T08:11:48.355Z,64.12
2023-05-20T08:12:48.342Z,63.12
2023-05-20T08:13:48.342Z,64.23
2023-05-20T08:14:48.310Z,66.28
2023-05-20T08:15:48.299Z,65.63
2023-05-20T08:16:48.381Z,64.18
2023-05-20T08:17:48.332Z,64.10
2023-05-20T08:18:48.336Z,66.27
2023-05-20T08:19:49.149Z,64.03
2023-05-20T08:20:48.267Z,61.99
2023-05-20T08:21:48.252Z,65.66
2023-05-20T08:22:48.250Z,66.69
2023-05-20T08:23:49.228Z,66.92
2023-05-20T08:24:48.256Z,63.43
2023-05-20T08:25:48.233Z,65.84
2023-05-20T08:26:48.206Z,64.83
2023-05-20T08:27:48.241Z,63.47
2023-05-20T08:28:48.229Z,64.95
2023-05-20T08:29:48.192Z,66.03
2023-05-20T08:30:48.234Z,65.95
2023-05-20T08:31:49.730Z,64.40
2023-05-20T08:32:48.178Z,67.30
2023-05-20T08:33:48.156Z,64.54
2023-05-20T08:34:49.150Z,65.25
2023-05-20T08:35:49.112Z,64.77
2023-05-20T08:36:48.132Z,64.85
2023-05-20T08:37:48.252Z,65.07
2023-05-20T08:38:48.135Z,67.41
2023-05-20T08:39:48.114Z,66.63
2023-05-20T08:40:48.094Z,65.97
2023-05-20T08:41:48.112Z,65.51
2023-05-20T08:42:50.746Z,64.17
2023-05-20T08:43:48.088Z,64.67
2023-05-20T08:44:48.065Z,63.56
2023-05-20T08:45:48.056Z,64.68
2023-05-20T08:46:48.120Z,67.04
2023-05-20T08:47:48.086Z,64.25
2023-05-20T08:48:48.077Z,65.39
2023-05-20T08:49:48.066Z,64.08
2023-05-20T08:50:48.054Z,64.84
2023-05-20T08:51:48.049Z,64.99
2023-05-20T08:52:48.016Z,65.14
2023-05-20T08:53:49.001Z,65.69
2023-05-20T08:54:48.024Z,66.58
2023-05-20T08:55:48.005Z,64.68
2023-05-20T08:56:47.992Z,66.26
2023-05-20T08:57:47.973Z,64.27
2023-05-20T08:58:47.957Z,65.85
2023-05-20T08:59:47.966Z,68.60
2023-05-20T09:00:47.971Z,71.15
2023-05-20T09:01:48.048Z,68.10
2023-05-20T09:02:47.942Z,65.30
2023-05-20T09:03:47.927Z,65.92
2023-05-20T09:04:48.002Z,65.81
2023-05-20T09:05:47.901Z,67.49
2023-05-20T09:06:47.908Z,66.86
2023-05-20T09:07:47.924Z,66.93
2023-05-20T09:08:47.900Z,65.07
2023-05-20T09:09:47.904Z,64.79
2023-05-20T09:10:48.906Z,64.77
2023-05-20T09:11:47.856Z,65.48
2023-05-20T09:12:47.846Z,64.71
2023-05-20T09:13:47.865Z,66.27
2023-05-20T09:14:47.868Z,64.45
2023-05-20T09:15:47.858Z,66.18
2023-05-20T09:16:47.844Z,66.07
2023-05-20T09:17:47.826Z,64.28
2023-05-20T09:18:47.817Z,64.96
2023-05-20T09:19:47.789Z,66.68
2023-05-20T09:20:47.811Z,66.58
2023-05-20T09:21:47.796Z,64.92
2023-05-20T09:22:47.780Z,67.00
2023-05-20T09:23:47.762Z,64.19
2023-05-20T09:24:47.761Z,65.34
2023-05-20T09:25:47.752Z,64.65
2023-05-20T09:26:47.733Z,64.19
2023-05-20T09:27:47.752Z,65.68
2023-05-20T09:28:47.750Z,64.34
2023-05-20T09:29:49.170Z,65.28
2023-05-20T09:30:47.731Z,69.86
2023-05-20T09:31:47.765Z,66.02
2023-05-20T09:32:47.700Z,65.51
2023-05-20T09:33:47.679Z,65.04
2023-05-20T09:34:47.662Z,63.49
2023-05-20T09:35:47.658Z,63.69
2023-05-20T09:36:47.672Z,66.13
2023-05-20T09:37:47.703Z,66.87
2023-05-20T09:38:47.709Z,65.50
2023-05-20T09:39:47.620Z,66.64
2023-05-20T09:40:49.162Z,65.45
2023-05-20T09:41:47.621Z,64.58
2023-05-20T09:42:47.600Z,64.94
2023-05-20T09:43:47.607Z,65.53
2023-05-20T09:44:47.581Z,64.30
2023-05-20T09:45:47.601Z,65.74
2023-05-20T09:46:47.570Z,66.86
2023-05-20T09:47:47.585Z,65.86
2023-05-20T09:48:47.585Z,66.67
2023-05-20T09:49:47.570Z,65.82
2023-05-20T09:50:47.547Z,64.82
2023-05-20T09:51:47.553Z,66.68
2023-05-20T09:52:47.562Z,65.29
2023-05-20T09:53:47.533Z,64.90
2023-05-20T09:54:47.504Z,65.66
2023-05-20T09:55:47.552Z,65.22
2023-05-20T09:56:47.513Z,65.46
2023-05-20T09:57:47.489Z,65.94
2023-05-20T09:58:47.499Z,64.48
2023-05-20T09:59:47.486Z,62.66
2023-05-20T10:00:47.478Z,66.06
2023-05-20T10:01:47.493Z,65.06
2023-05-20T10:02:47.497Z,68.65
2023-05-20T10:03:47.580Z,66.62
2023-05-20T10:04:48.231Z,69.19
2023-05-20T10:05:48.413Z,70.16
2023-05-20T10:06:47.409Z,65.40
2023-05-20T10:07:47.399Z,63.41
2023-05-20T10:08:47.395Z,64.77
2023-05-20T10:09:47.393Z,64.70
2023-05-20T10:10:47.391Z,65.41
2023-05-20T10:11:47.349Z,63.84
2023-05-20T10:12:49.270Z,63.76
2023-05-20T10:13:47.403Z,66.03
2023-05-20T10:14:47.339Z,62.74
2023-05-20T10:15:47.357Z,65.23
2023-05-20T10:16:47.343Z,64.09
2023-05-20T10:17:47.347Z,64.30
2023-05-20T10:18:47.329Z,65.39
2023-05-20T10:19:47.301Z,67.44
2023-05-20T10:20:47.287Z,65.90
2023-05-20T10:21:47.292Z,64.17
2023-05-20T10:22:47.272Z,66.29
2023-05-20T10:23:47.287Z,65.19
2023-05-20T10:24:47.411Z,65.56
2023-05-20T10:25:47.282Z,66.75
2023-05-20T10:26:47.800Z,66.34
2023-05-20T10:27:47.236Z,64.75
2023-05-20T10:28:48.195Z,66.13
2023-05-20T10:30:47.208Z,65.88
2023-05-20T10:31:47.229Z,66.06
2023-05-20T10:32:47.289Z,65.14
2023-05-20T10:33:47.306Z,64.34
2023-05-20T10:34:47.165Z,64.26
2023-05-20T10:35:47.176Z,64.04
2023-05-20T10:36:47.150Z,66.79
2023-05-20T10:37:47.153Z,63.29
2023-05-20T10:38:47.142Z,66.87
2023-05-20T10:39:47.143Z,64.78
2023-05-20T10:40:47.125Z,65.98
2023-05-20T10:41:47.111Z,66.72
2023-05-20T10:42:48.114Z,66.94
2023-05-20T10:43:47.105Z,64.70
2023-05-20T10:44:47.098Z,66.32
2023-05-20T10:45:47.119Z,65.28
2023-05-20T10:47:06.692Z,63.58
2023-05-20T10:47:49.100Z,66.70
2023-05-20T10:48:47.114Z,65.32
2023-05-20T10:49:47.059Z,65.30
2023-05-20T10:50:47.037Z,62.54
2023-05-20T10:51:47.046Z,67.74
2023-05-20T10:52:47.029Z,63.75
2023-05-20T10:53:47.800Z,66.16
2023-05-20T10:54:50.193Z,67.59
2023-05-20T10:55:47.000Z,66.12
2023-05-20T10:56:48.820Z,65.64
2023-05-20T10:57:46.987Z,64.58
2023-05-20T10:58:49.827Z,66.97
2023-05-20T10:59:47.818Z,64.33
2023-05-20T11:00:47.989Z,65.27
2023-05-20T11:01:46.982Z,66.54
2023-05-20T11:02:48.119Z,63.22
2023-05-20T11:03:49.883Z,65.90
2023-05-20T11:04:46.925Z,64.36
2023-05-20T11:05:46.897Z,67.12
2023-05-20T11:06:46.917Z,66.81
2023-05-20T11:07:46.910Z,66.64
2023-05-20T11:08:46.905Z,64.83
2023-05-20T11:09:46.881Z,63.97
2023-05-20T11:10:47.982Z,64.97
2023-05-20T11:11:48.723Z,62.63
2023-05-20T11:12:47.303Z,67.96
2023-05-20T11:13:46.851Z,63.73
2023-05-20T11:14:46.853Z,64.89
2023-05-20T11:15:47.711Z,66.97
2023-05-20T11:16:46.858Z,64.81
2023-05-20T11:17:46.857Z,64.40
2023-05-20T11:18:46.815Z,66.08
2023-05-20T11:19:46.832Z,65.21
2023-05-20T11:20:46.837Z,62.35
2023-05-20T11:21:46.791Z,63.61
2023-05-20T11:22:46.776Z,64.28
2023-05-20T11:23:47.304Z,64.81
2023-05-20T11:24:46.764Z,65.11
2023-05-20T11:25:46.761Z,65.66
2023-05-20T11:26:46.753Z,64.60
2023-05-20T11:27:46.765Z,65.63
2023-05-20T11:28:46.739Z,64.14
2023-05-20T11:29:46.751Z,67.01
2023-05-20T11:30:46.704Z,65.94
2023-05-20T11:31:46.754Z,64.34
2023-05-20T11:32:46.815Z,64.64
2023-05-20T11:33:47.720Z,63.83
2023-05-20T11:34:46.724Z,63.27
2023-05-20T11:35:46.686Z,62.77
2023-05-20T11:36:46.662Z,64.29
2023-05-20T11:37:46.649Z,65.36
2023-05-20T11:38:46.645Z,63.92
2023-05-20T11:39:47.300Z,64.48
2023-05-20T11:40:51.007Z,64.06
2023-05-20T11:41:48.636Z,63.99
2023-05-20T11:42:46.621Z,64.96
2023-05-20T11:43:46.611Z,63.79
2023-05-20T11:44:46.592Z,62.71
2023-05-20T11:45:46.634Z,63.89
2023-05-20T11:46:46.595Z,63.41
2023-05-20T11:47:47.253Z,64.79
2023-05-20T11:48:46.563Z,64.42
2023-05-20T11:49:46.591Z,66.29
2023-05-20T11:50:46.583Z,63.93
2023-05-20T11:51:47.229Z,66.96
2023-05-20T11:52:46.538Z,65.22
2023-05-20T11:53:46.533Z,66.23
2023-05-20T11:54:47.268Z,65.01
2023-05-20T11:55:46.512Z,66.58
2023-05-20T11:56:46.520Z,68.77
2023-05-20T11:57:46.492Z,66.46
2023-05-20T11:58:46.543Z,65.53
2023-05-20T11:59:46.488Z,63.59
2023-05-20T12:00:51.660Z,67.11
2023-05-20T12:01:48.465Z,65.36
2023-05-20T12:02:46.520Z,64.59
2023-05-20T12:03:46.526Z,64.36
2023-05-20T12:04:46.561Z,66.19
2023-05-20T12:05:46.436Z,63.38
2023-05-20T12:06:46.425Z,66.23
2023-05-20T12:07:46.412Z,63.82
2023-05-20T12:08:46.425Z,62.69
2023-05-20T12:09:46.399Z,65.70
2023-05-20T12:10:46.401Z,65.96
2023-05-20T12:11:47.326Z,64.28
2023-05-20T12:12:46.376Z,66.78
2023-05-20T12:13:46.385Z,64.35
2023-05-20T12:14:46.355Z,64.07
2023-05-20T12:15:46.406Z,64.04
2023-05-20T12:16:46.353Z,64.08
2023-05-20T12:17:46.354Z,67.70
2023-05-20T12:18:46.345Z,66.85
2023-05-20T12:19:46.373Z,64.28
2023-05-20T12:20:46.368Z,65.57
2023-05-20T12:21:46.312Z,65.74
2023-05-20T12:22:46.291Z,66.65
2023-05-20T12:23:46.809Z,65.41
2023-05-20T12:24:46.285Z,66.95
2023-05-20T12:25:47.268Z,65.38
2023-05-20T12:26:46.280Z,63.17
2023-05-20T12:27:46.250Z,64.66
2023-05-20T12:28:48.290Z,64.45
2023-05-20T12:29:46.269Z,64.96
2023-05-20T12:30:46.245Z,65.16
2023-05-20T12:31:46.340Z,65.19
2023-05-20T12:32:46.213Z,64.73
2023-05-20T12:33:46.245Z,65.08
2023-05-20T12:34:46.196Z,63.41
2023-05-20T12:35:46.172Z,65.28
2023-05-20T12:36:46.163Z,65.93
2023-05-20T12:37:47.723Z,63.27
2023-05-20T12:38:46.177Z,64.66
2023-05-20T12:39:46.188Z,65.85
2023-05-20T12:40:46.139Z,64.32
2023-05-20T12:41:46.143Z,65.38
2023-05-20T12:42:46.132Z,63.95
2023-05-20T12:43:46.121Z,65.26
2023-05-20T12:44:46.100Z,66.87
2023-05-20T12:45:46.107Z,66.15
2023-05-20T12:46:46.108Z,63.82
2023-05-20T12:47:46.112Z,65.28
2023-05-20T12:48:46.072Z,64.21
2023-05-20T12:49:46.066Z,65.01
2023-05-20T12:50:46.065Z,65.40
2023-05-20T12:51:46.068Z,64.73
2023-05-20T12:52:46.047Z,62.92
2023-05-20T12:53:46.075Z,65.56
2023-05-20T12:54:46.024Z,66.83
2023-05-20T12:55:46.030Z,64.88
2023-05-20T12:56:46.017Z,67.73
2023-05-20T12:57:46.006Z,66.91
2023-05-20T12:58:46.820Z,65.46